sensor_id;sensor_type;location;lat;lon;timestamp;temperature;humidity
20349;DHT22;10332;50.208;18.988;2022-11-04T00:01:45;11.60;61.90
20349;DHT22;10332;50.208;18.988;2022-11-04T00:04:14;11.60;61.90
20349;DHT22;10332;50.208;18.988;2022-11-04T00:06:43;11.60;61.90
20349;DHT22;10332;50.208;18.988;2022-11-04T00:09:30;11.50;62.20
20349;DHT22;10332;50.208;18.988;2022-11-04T00:11:58;11.50;62.20
20349;DHT22;10332;50.208;18.988;2022-11-04T00:14:44;11.50;62.20
20349;DHT22;10332;50.208;18.988;2022-11-04T00:17:12;11.50;61.90
20349;DHT22;10332;50.208;18.988;2022-11-04T00:19:50;11.50;61.90
20349;DHT22;10332;50.208;18.988;2022-11-04T00:22:39;11.50;62.20
20349;DHT22;10332;50.208;18.988;2022-11-04T00:25:27;11.50;62.10
20349;DHT22;10332;50.208;18.988;2022-11-04T00:28:15;11.50;61.90
20349;DHT22;10332;50.208;18.988;2022-11-04T00:31:05;11.50;62.30
20349;DHT22;10332;50.208;18.988;2022-11-04T00:33:54;11.50;62.30
20349;DHT22;10332;50.208;18.988;2022-11-04T00:36:24;11.50;62.90
20349;DHT22;10332;50.208;18.988;2022-11-04T00:38:52;11.40;63.20
20349;DHT22;10332;50.208;18.988;2022-11-04T00:41:20;11.40;63.30
20349;DHT22;10332;50.208;18.988;2022-11-04T00:44:03;11.40;63.40
20349;DHT22;10332;50.208;18.988;2022-11-04T00:46:32;11.40;63.60
20349;DHT22;10332;50.208;18.988;2022-11-04T00:49:01;11.40;63.60
20349;DHT22;10332;50.208;18.988;2022-11-04T00:51:28;11.40;63.50
20349;DHT22;10332;50.208;18.988;2022-11-04T00:53:56;11.40;63.20
20349;DHT22;10332;50.208;18.988;2022-11-04T00:56:26;11.40;63.10
20349;DHT22;10332;50.208;18.988;2022-11-04T00:58:54;11.40;62.90
20349;DHT22;10332;50.208;18.988;2022-11-04T01:01:21;11.50;62.70
20349;DHT22;10332;50.208;18.988;2022-11-04T01:03:51;11.50;62.40
20349;DHT22;10332;50.208;18.988;2022-11-04T01:06:20;11.50;61.80
20349;DHT22;10332;50.208;18.988;2022-11-04T01:08:54;11.60;60.80
20349;DHT22;10332;50.208;18.988;2022-11-04T01:11:27;11.70;60.30
20349;DHT22;10332;50.208;18.988;2022-11-04T01:13:56;11.70;59.80
20349;DHT22;10332;50.208;18.988;2022-11-04T01:16:24;11.70;59.50
20349;DHT22;10332;50.208;18.988;2022-11-04T01:18:54;11.80;59.20
20349;DHT22;10332;50.208;18.988;2022-11-04T01:21:22;11.70;59.00
20349;DHT22;10332;50.208;18.988;2022-11-04T01:23:49;11.80;58.80
20349;DHT22;10332;50.208;18.988;2022-11-04T01:26:18;11.80;58.50
20349;DHT22;10332;50.208;18.988;2022-11-04T01:28:51;11.80;58.40
20349;DHT22;10332;50.208;18.988;2022-11-04T01:31:23;11.80;58.10
20349;DHT22;10332;50.208;18.988;2022-11-04T01:33:53;11.90;58.00
20349;DHT22;10332;50.208;18.988;2022-11-04T01:36:22;11.80;57.90
20349;DHT22;10332;50.208;18.988;2022-11-04T01:38:51;11.80;57.80
20349;DHT22;10332;50.208;18.988;2022-11-04T01:41:26;11.80;57.90
20349;DHT22;10332;50.208;18.988;2022-11-04T01:44:01;11.80;57.70
20349;DHT22;10332;50.208;18.988;2022-11-04T01:46:37;11.80;57.80
20349;DHT22;10332;50.208;18.988;2022-11-04T01:49:29;11.80;58.60
20349;DHT22;10332;50.208;18.988;2022-11-04T01:52:09;11.90;58.00
20349;DHT22;10332;50.208;18.988;2022-11-04T01:54:42;11.80;57.90
20349;DHT22;10332;50.208;18.988;2022-11-04T01:57:18;11.80;57.80
20349;DHT22;10332;50.208;18.988;2022-11-04T01:59:49;11.90;58.00
20349;DHT22;10332;50.208;18.988;2022-11-04T02:02:17;11.80;57.80
20349;DHT22;10332;50.208;18.988;2022-11-04T02:04:45;11.80;58.00
20349;DHT22;10332;50.208;18.988;2022-11-04T02:07:13;11.80;58.20
20349;DHT22;10332;50.208;18.988;2022-11-04T02:09:41;11.80;58.30
20349;DHT22;10332;50.208;18.988;2022-11-04T02:12:10;11.80;58.60
20349;DHT22;10332;50.208;18.988;2022-11-04T02:14:56;11.70;58.80
20349;DHT22;10332;50.208;18.988;2022-11-04T02:17:52;11.70;59.00
20349;DHT22;10332;50.208;18.988;2022-11-04T02:27:06;11.70;59.40
20349;DHT22;10332;50.208;18.988;2022-11-04T02:32:56;11.60;59.60
20349;DHT22;10332;50.208;18.988;2022-11-04T02:35:45;11.70;59.60
20349;DHT22;10332;50.208;18.988;2022-11-04T02:44:13;11.70;59.50
20349;DHT22;10332;50.208;18.988;2022-11-04T02:46:55;11.70;59.40
20349;DHT22;10332;50.208;18.988;2022-11-04T02:49:56;11.70;59.70
20349;DHT22;10332;50.208;18.988;2022-11-04T02:52:46;11.70;60.00
20349;DHT22;10332;50.208;18.988;2022-11-04T02:55:26;11.60;60.10
20349;DHT22;10332;50.208;18.988;2022-11-04T02:57:58;11.60;60.30
20349;DHT22;10332;50.208;18.988;2022-11-04T03:00:28;11.60;60.50
20349;DHT22;10332;50.208;18.988;2022-11-04T03:03:03;11.60;60.90
20349;DHT22;10332;50.208;18.988;2022-11-04T03:05:39;11.50;61.30
20349;DHT22;10332;50.208;18.988;2022-11-04T03:08:21;11.50;61.50
20349;DHT22;10332;50.208;18.988;2022-11-04T03:11:22;11.50;61.70
20349;DHT22;10332;50.208;18.988;2022-11-04T03:14:09;11.50;61.40
20349;DHT22;10332;50.208;18.988;2022-11-04T03:16:49;11.50;61.30
20349;DHT22;10332;50.208;18.988;2022-11-04T03:19:43;11.50;61.40
20349;DHT22;10332;50.208;18.988;2022-11-04T03:22:28;11.50;61.80
20349;DHT22;10332;50.208;18.988;2022-11-04T03:25:00;11.50;61.90
20349;DHT22;10332;50.208;18.988;2022-11-04T03:28:04;11.50;61.90
20349;DHT22;10332;50.208;18.988;2022-11-04T03:30:41;11.50;61.90
20349;DHT22;10332;50.208;18.988;2022-11-04T03:33:41;11.40;61.70
20349;DHT22;10332;50.208;18.988;2022-11-04T03:36:13;11.40;61.90
20349;DHT22;10332;50.208;18.988;2022-11-04T03:38:42;11.40;62.30
20349;DHT22;10332;50.208;18.988;2022-11-04T03:41:18;11.30;62.60
20349;DHT22;10332;50.208;18.988;2022-11-04T03:43:59;11.30;62.80
20349;DHT22;10332;50.208;18.988;2022-11-04T03:46:27;11.20;63.60
20349;DHT22;10332;50.208;18.988;2022-11-04T03:48:56;11.10;63.60
20349;DHT22;10332;50.208;18.988;2022-11-04T03:51:25;11.00;64.90
20349;DHT22;10332;50.208;18.988;2022-11-04T03:53:53;11.00;65.20
20349;DHT22;10332;50.208;18.988;2022-11-04T04:01:54;10.80;67.20
20349;DHT22;10332;50.208;18.988;2022-11-04T04:04:37;10.70;67.60
20349;DHT22;10332;50.208;18.988;2022-11-04T04:07:16;10.70;68.80
20349;DHT22;10332;50.208;18.988;2022-11-04T04:09:57;10.70;69.20
20349;DHT22;10332;50.208;18.988;2022-11-04T04:12:36;10.60;69.80
20349;DHT22;10332;50.208;18.988;2022-11-04T04:15:12;10.60;69.80
20349;DHT22;10332;50.208;18.988;2022-11-04T04:17:59;10.50;70.10
20349;DHT22;10332;50.208;18.988;2022-11-04T04:20:34;10.50;70.30
20349;DHT22;10332;50.208;18.988;2022-11-04T04:23:14;10.50;69.90
20349;DHT22;10332;50.208;18.988;2022-11-04T04:26:06;10.50;70.10
20349;DHT22;10332;50.208;18.988;2022-11-04T04:28:55;10.50;69.90
20349;DHT22;10332;50.208;18.988;2022-11-04T04:31:26;10.50;69.90
20349;DHT22;10332;50.208;18.988;2022-11-04T04:34:20;10.40;70.00
20349;DHT22;10332;50.208;18.988;2022-11-04T04:36:56;10.40;69.60
20349;DHT22;10332;50.208;18.988;2022-11-04T04:39:42;10.40;69.70
20349;DHT22;10332;50.208;18.988;2022-11-04T04:42:33;10.40;70.10
20349;DHT22;10332;50.208;18.988;2022-11-04T04:45:22;10.30;70.00
20349;DHT22;10332;50.208;18.988;2022-11-04T04:47:55;10.30;69.80
20349;DHT22;10332;50.208;18.988;2022-11-04T04:50:26;10.30;71.10
20349;DHT22;10332;50.208;18.988;2022-11-04T04:52:58;10.30;70.20
20349;DHT22;10332;50.208;18.988;2022-11-04T04:55:26;10.30;70.50
20349;DHT22;10332;50.208;18.988;2022-11-04T04:57:54;10.30;70.60
20349;DHT22;10332;50.208;18.988;2022-11-04T05:00:21;10.30;71.00
20349;DHT22;10332;50.208;18.988;2022-11-04T05:02:49;10.30;71.30
20349;DHT22;10332;50.208;18.988;2022-11-04T05:05:17;10.20;71.60
20349;DHT22;10332;50.208;18.988;2022-11-04T05:07:45;10.20;71.80
20349;DHT22;10332;50.208;18.988;2022-11-04T05:10:14;10.20;72.10
20349;DHT22;10332;50.208;18.988;2022-11-04T05:12:43;10.20;72.10
20349;DHT22;10332;50.208;18.988;2022-11-04T05:15:30;10.20;72.10
20349;DHT22;10332;50.208;18.988;2022-11-04T05:17:59;10.20;72.80
20349;DHT22;10332;50.208;18.988;2022-11-04T05:20:28;10.20;72.80
20349;DHT22;10332;50.208;18.988;2022-11-04T05:22:56;10.20;72.70
20349;DHT22;10332;50.208;18.988;2022-11-04T05:25:23;10.20;72.60
20349;DHT22;10332;50.208;18.988;2022-11-04T05:27:51;10.20;72.00
20349;DHT22;10332;50.208;18.988;2022-11-04T05:30:18;10.30;71.40
20349;DHT22;10332;50.208;18.988;2022-11-04T05:32:46;10.30;71.00
20349;DHT22;10332;50.208;18.988;2022-11-04T05:35:13;10.30;70.30
20349;DHT22;10332;50.208;18.988;2022-11-04T05:37:41;10.40;69.50
20349;DHT22;10332;50.208;18.988;2022-11-04T05:40:09;10.40;69.10
20349;DHT22;10332;50.208;18.988;2022-11-04T05:42:36;10.50;68.20
20349;DHT22;10332;50.208;18.988;2022-11-04T05:45:04;10.50;68.00
20349;DHT22;10332;50.208;18.988;2022-11-04T05:47:32;10.60;67.40
20349;DHT22;10332;50.208;18.988;2022-11-04T05:49:59;10.60;66.80
20349;DHT22;10332;50.208;18.988;2022-11-04T05:52:27;10.70;66.20
20349;DHT22;10332;50.208;18.988;2022-11-04T05:54:54;10.70;65.80
20349;DHT22;10332;50.208;18.988;2022-11-04T05:57:21;10.80;65.10
20349;DHT22;10332;50.208;18.988;2022-11-04T05:59:49;10.80;64.30
20349;DHT22;10332;50.208;18.988;2022-11-04T06:02:16;10.90;63.40
20349;DHT22;10332;50.208;18.988;2022-11-04T06:04:44;11.00;62.70
20349;DHT22;10332;50.208;18.988;2022-11-04T06:07:11;11.10;61.70
20349;DHT22;10332;50.208;18.988;2022-11-04T06:09:39;11.10;61.20
20349;DHT22;10332;50.208;18.988;2022-11-04T06:12:08;11.20;61.10
20349;DHT22;10332;50.208;18.988;2022-11-04T06:14:38;11.20;60.70
20349;DHT22;10332;50.208;18.988;2022-11-04T06:17:05;11.30;60.40
20349;DHT22;10332;50.208;18.988;2022-11-04T06:19:32;11.30;59.80
20349;DHT22;10332;50.208;18.988;2022-11-04T06:24:46;11.30;59.80
20349;DHT22;10332;50.208;18.988;2022-11-04T06:27:13;11.40;59.70
20349;DHT22;10332;50.208;18.988;2022-11-04T06:29:41;11.30;59.30
20349;DHT22;10332;50.208;18.988;2022-11-04T06:32:11;11.40;60.00
20349;DHT22;10332;50.208;18.988;2022-11-04T06:34:41;11.50;59.10
20349;DHT22;10332;50.208;18.988;2022-11-04T06:37:08;11.50;58.70
20349;DHT22;10332;50.208;18.988;2022-11-04T06:39:36;11.60;58.50
20349;DHT22;10332;50.208;18.988;2022-11-04T06:42:04;11.60;58.10
20349;DHT22;10332;50.208;18.988;2022-11-04T06:44:31;11.70;57.90
20349;DHT22;10332;50.208;18.988;2022-11-04T06:47:02;11.70;57.90
20349;DHT22;10332;50.208;18.988;2022-11-04T06:49:30;11.70;57.90
20349;DHT22;10332;50.208;18.988;2022-11-04T06:51:57;11.70;57.90
20349;DHT22;10332;50.208;18.988;2022-11-04T06:54:25;11.70;58.10
20349;DHT22;10332;50.208;18.988;2022-11-04T06:56:52;11.70;58.30
20349;DHT22;10332;50.208;18.988;2022-11-04T06:59:20;11.70;58.30
20349;DHT22;10332;50.208;18.988;2022-11-04T07:01:48;11.80;59.30
20349;DHT22;10332;50.208;18.988;2022-11-04T07:04:18;11.80;58.70
20349;DHT22;10332;50.208;18.988;2022-11-04T07:06:45;11.90;58.90
20349;DHT22;10332;50.208;18.988;2022-11-04T07:09:14;12.00;58.80
20349;DHT22;10332;50.208;18.988;2022-11-04T07:11:43;12.10;57.50
20349;DHT22;10332;50.208;18.988;2022-11-04T07:14:11;12.10;57.30
20349;DHT22;10332;50.208;18.988;2022-11-04T07:16:40;12.20;57.80
20349;DHT22;10332;50.208;18.988;2022-11-04T07:19:07;12.20;57.40
20349;DHT22;10332;50.208;18.988;2022-11-04T07:21:34;12.30;57.20
20349;DHT22;10332;50.208;18.988;2022-11-04T07:24:02;12.30;57.20
20349;DHT22;10332;50.208;18.988;2022-11-04T07:26:29;12.30;57.10
20349;DHT22;10332;50.208;18.988;2022-11-04T07:28:57;12.30;57.60
20349;DHT22;10332;50.208;18.988;2022-11-04T07:31:27;12.30;57.20
20349;DHT22;10332;50.208;18.988;2022-11-04T07:33:54;12.40;57.00
20349;DHT22;10332;50.208;18.988;2022-11-04T07:36:21;12.50;57.80
20349;DHT22;10332;50.208;18.988;2022-11-04T07:38:49;12.50;56.90
20349;DHT22;10332;50.208;18.988;2022-11-04T07:41:16;12.50;56.90
20349;DHT22;10332;50.208;18.988;2022-11-04T07:43:49;12.60;56.40
20349;DHT22;10332;50.208;18.988;2022-11-04T07:46:18;12.70;56.40
20349;DHT22;10332;50.208;18.988;2022-11-04T07:48:46;12.80;55.80
20349;DHT22;10332;50.208;18.988;2022-11-04T07:51:17;12.90;54.90
20349;DHT22;10332;50.208;18.988;2022-11-04T07:53:46;12.90;54.60
20349;DHT22;10332;50.208;18.988;2022-11-04T07:56:14;12.90;53.60
20349;DHT22;10332;50.208;18.988;2022-11-04T07:58:42;12.90;53.60
20349;DHT22;10332;50.208;18.988;2022-11-04T08:01:12;13.00;53.40
20349;DHT22;10332;50.208;18.988;2022-11-04T08:03:42;13.00;53.10
20349;DHT22;10332;50.208;18.988;2022-11-04T08:06:12;13.00;53.10
20349;DHT22;10332;50.208;18.988;2022-11-04T08:08:40;13.00;52.80
20349;DHT22;10332;50.208;18.988;2022-11-04T08:11:12;13.10;52.80
20349;DHT22;10332;50.208;18.988;2022-11-04T08:13:45;13.00;52.50
20349;DHT22;10332;50.208;18.988;2022-11-04T08:16:18;13.00;53.10
20349;DHT22;10332;50.208;18.988;2022-11-04T08:18:48;13.00;53.20
20349;DHT22;10332;50.208;18.988;2022-11-04T08:21:19;13.00;53.10
20349;DHT22;10332;50.208;18.988;2022-11-04T08:23:47;13.00;53.20
20349;DHT22;10332;50.208;18.988;2022-11-04T08:26:18;13.00;53.40
20349;DHT22;10332;50.208;18.988;2022-11-04T08:28:46;13.10;53.30
20349;DHT22;10332;50.208;18.988;2022-11-04T08:31:20;13.20;54.10
20349;DHT22;10332;50.208;18.988;2022-11-04T08:33:53;13.30;52.90
20349;DHT22;10332;50.208;18.988;2022-11-04T08:36:25;13.30;52.60
20349;DHT22;10332;50.208;18.988;2022-11-04T08:38:56;13.30;52.30
20349;DHT22;10332;50.208;18.988;2022-11-04T08:41:28;13.30;52.40
20349;DHT22;10332;50.208;18.988;2022-11-04T08:43:57;13.30;52.30
20349;DHT22;10332;50.208;18.988;2022-11-04T08:46:27;13.30;52.40
20349;DHT22;10332;50.208;18.988;2022-11-04T08:48:58;13.30;52.40
20349;DHT22;10332;50.208;18.988;2022-11-04T08:51:26;13.40;52.50
20349;DHT22;10332;50.208;18.988;2022-11-04T08:53:56;13.40;52.80
20349;DHT22;10332;50.208;18.988;2022-11-04T08:56:25;13.50;52.80
20349;DHT22;10332;50.208;18.988;2022-11-04T08:58:56;13.50;52.40
20349;DHT22;10332;50.208;18.988;2022-11-04T09:01:25;13.60;52.20
20349;DHT22;10332;50.208;18.988;2022-11-04T09:04:02;13.80;52.10
20349;DHT22;10332;50.208;18.988;2022-11-04T09:06:34;13.90;51.80
20349;DHT22;10332;50.208;18.988;2022-11-04T09:09:06;14.00;51.10
20349;DHT22;10332;50.208;18.988;2022-11-04T09:11:40;14.10;50.60
20349;DHT22;10332;50.208;18.988;2022-11-04T09:14:10;14.10;50.70
20349;DHT22;10332;50.208;18.988;2022-11-04T09:16:38;14.20;50.60
20349;DHT22;10332;50.208;18.988;2022-11-04T09:19:07;14.20;50.90
20349;DHT22;10332;50.208;18.988;2022-11-04T09:21:35;14.20;50.50
20349;DHT22;10332;50.208;18.988;2022-11-04T09:24:03;14.20;50.50
20349;DHT22;10332;50.208;18.988;2022-11-04T09:26:31;14.30;50.20
20349;DHT22;10332;50.208;18.988;2022-11-04T09:29:00;14.30;50.50
20349;DHT22;10332;50.208;18.988;2022-11-04T09:31:29;14.40;50.40
20349;DHT22;10332;50.208;18.988;2022-11-04T09:33:57;14.50;49.80
20349;DHT22;10332;50.208;18.988;2022-11-04T09:36:24;14.60;49.50
20349;DHT22;10332;50.208;18.988;2022-11-04T09:38:52;14.80;49.40
20349;DHT22;10332;50.208;18.988;2022-11-04T09:44:22;15.10;47.80
20349;DHT22;10332;50.208;18.988;2022-11-04T09:47:00;15.20;47.00
20349;DHT22;10332;50.208;18.988;2022-11-04T09:49:33;15.40;46.40
20349;DHT22;10332;50.208;18.988;2022-11-04T09:52:16;15.50;45.40
20349;DHT22;10332;50.208;18.988;2022-11-04T09:57:37;15.70;45.00
20349;DHT22;10332;50.208;18.988;2022-11-04T10:00:08;15.80;44.10
20349;DHT22;10332;50.208;18.988;2022-11-04T10:06:28;15.80;42.50
20349;DHT22;10332;50.208;18.988;2022-11-04T10:09:18;15.60;43.10
20349;DHT22;10332;50.208;18.988;2022-11-04T10:17:43;16.10;42.80
20349;DHT22;10332;50.208;18.988;2022-11-04T10:20:53;16.60;42.10
20349;DHT22;10332;50.208;18.988;2022-11-04T10:26:16;17.70;36.80
20349;DHT22;10332;50.208;18.988;2022-11-04T10:29:05;18.50;34.50
20349;DHT22;10332;50.208;18.988;2022-11-04T10:31:40;19.20;30.40
20349;DHT22;10332;50.208;18.988;2022-11-04T10:34:40;19.50;27.40
20349;DHT22;10332;50.208;18.988;2022-11-04T10:37:16;19.50;25.80
20349;DHT22;10332;50.208;18.988;2022-11-04T10:39:45;19.40;22.10
20349;DHT22;10332;50.208;18.988;2022-11-04T10:42:16;19.10;21.30
20349;DHT22;10332;50.208;18.988;2022-11-04T10:44:49;18.90;21.30
20349;DHT22;10332;50.208;18.988;2022-11-04T10:50:23;18.40;21.70
20349;DHT22;10332;50.208;18.988;2022-11-04T10:53:18;18.00;22.70
20349;DHT22;10332;50.208;18.988;2022-11-04T10:56:15;17.70;23.90
20349;DHT22;10332;50.208;18.988;2022-11-04T10:59:13;17.80;25.10
20349;DHT22;10332;50.208;18.988;2022-11-04T11:01:57;18.30;25.80
20349;DHT22;10332;50.208;18.988;2022-11-04T11:04:33;18.90;23.60
20349;DHT22;10332;50.208;18.988;2022-11-04T11:07:04;19.30;22.30
20349;DHT22;10332;50.208;18.988;2022-11-04T11:12:24;19.90;18.20
20349;DHT22;10332;50.208;18.988;2022-11-04T11:18:10;19.70;17.50
20349;DHT22;10332;50.208;18.988;2022-11-04T11:20:38;19.60;17.50
20349;DHT22;10332;50.208;18.988;2022-11-04T11:26:28;19.70;17.40
20349;DHT22;10332;50.208;18.988;2022-11-04T11:28:58;19.40;17.70
20349;DHT22;10332;50.208;18.988;2022-11-04T11:31:38;19.10;18.60
20349;DHT22;10332;50.208;18.988;2022-11-04T11:34:18;18.80;19.70
20349;DHT22;10332;50.208;18.988;2022-11-04T11:36:48;18.70;20.50
20349;DHT22;10332;50.208;18.988;2022-11-04T11:39:25;18.70;21.10
20349;DHT22;10332;50.208;18.988;2022-11-04T11:45:01;19.00;21.20
20349;DHT22;10332;50.208;18.988;2022-11-04T11:50:14;19.00;21.00
20349;DHT22;10332;50.208;18.988;2022-11-04T11:52:43;18.90;21.10
20349;DHT22;10332;50.208;18.988;2022-11-04T11:55:22;19.10;21.10
20349;DHT22;10332;50.208;18.988;2022-11-04T11:58:18;19.50;20.60
20349;DHT22;10332;50.208;18.988;2022-11-04T12:01:37;20.40;19.50
20349;DHT22;10332;50.208;18.988;2022-11-04T12:04:08;22.10;15.10
20349;DHT22;10332;50.208;18.988;2022-11-04T12:11:15;23.90;1.60
20349;DHT22;10332;50.208;18.988;2022-11-04T12:14:33;24.30;1.00
20349;DHT22;10332;50.208;18.988;2022-11-04T12:23:24;23.30;1.00
20349;DHT22;10332;50.208;18.988;2022-11-04T12:35:16;19.90;4.70
20349;DHT22;10332;50.208;18.988;2022-11-04T12:44:12;18.50;12.10
20349;DHT22;10332;50.208;18.988;2022-11-04T12:50:27;17.70;18.60
20349;DHT22;10332;50.208;18.988;2022-11-04T13:01:44;16.90;28.20
20349;DHT22;10332;50.208;18.988;2022-11-04T13:04:19;16.70;31.40
20349;DHT22;10332;50.208;18.988;2022-11-04T13:07:00;16.60;33.50
20349;DHT22;10332;50.208;18.988;2022-11-04T13:09:51;16.60;35.30
20349;DHT22;10332;50.208;18.988;2022-11-04T13:12:29;16.60;35.70
20349;DHT22;10332;50.208;18.988;2022-11-04T13:15:06;16.60;36.70
20349;DHT22;10332;50.208;18.988;2022-11-04T13:17:44;16.50;37.80
20349;DHT22;10332;50.208;18.988;2022-11-04T13:20:25;16.50;38.60
20349;DHT22;10332;50.208;18.988;2022-11-04T13:23:03;16.60;38.70
20349;DHT22;10332;50.208;18.988;2022-11-04T13:25:45;16.50;39.80
20349;DHT22;10332;50.208;18.988;2022-11-04T13:28:19;16.50;40.40
20349;DHT22;10332;50.208;18.988;2022-11-04T13:30:59;16.40;40.80
20349;DHT22;10332;50.208;18.988;2022-11-04T13:33:49;16.40;41.40
20349;DHT22;10332;50.208;18.988;2022-11-04T13:44:57;16.20;44.10
20349;DHT22;10332;50.208;18.988;2022-11-04T13:47:52;16.00;45.80
20349;DHT22;10332;50.208;18.988;2022-11-04T13:53:09;16.00;46.50
20349;DHT22;10332;50.208;18.988;2022-11-04T13:55:50;16.00;46.90
20349;DHT22;10332;50.208;18.988;2022-11-04T13:58:24;16.00;47.60
20349;DHT22;10332;50.208;18.988;2022-11-04T14:01:25;16.00;47.40
20349;DHT22;10332;50.208;18.988;2022-11-04T14:04:14;16.00;47.70
20349;DHT22;10332;50.208;18.988;2022-11-04T14:06:54;15.90;47.90
20349;DHT22;10332;50.208;18.988;2022-11-04T14:14:37;15.80;49.80
20349;DHT22;10332;50.208;18.988;2022-11-04T14:22:50;15.70;51.40
20349;DHT22;10332;50.208;18.988;2022-11-04T14:28:16;15.60;52.40
20349;DHT22;10332;50.208;18.988;2022-11-04T14:31:06;15.50;52.60
20349;DHT22;10332;50.208;18.988;2022-11-04T14:33:53;15.60;52.80
20349;DHT22;10332;50.208;18.988;2022-11-04T14:36:29;15.60;52.70
20349;DHT22;10332;50.208;18.988;2022-11-04T14:39:19;15.50;53.70
20349;DHT22;10332;50.208;18.988;2022-11-04T14:42:01;15.50;54.00
20349;DHT22;10332;50.208;18.988;2022-11-04T14:44:34;15.40;55.10
20349;DHT22;10332;50.208;18.988;2022-11-04T14:47:23;15.40;55.20
20349;DHT22;10332;50.208;18.988;2022-11-04T14:52:46;15.40;56.20
20349;DHT22;10332;50.208;18.988;2022-11-04T14:55:24;15.40;56.20
20349;DHT22;10332;50.208;18.988;2022-11-04T15:00:54;15.30;56.20
20349;DHT22;10332;50.208;18.988;2022-11-04T15:03:26;15.30;56.30
20349;DHT22;10332;50.208;18.988;2022-11-04T15:06:26;15.30;56.80
20349;DHT22;10332;50.208;18.988;2022-11-04T15:09:25;15.30;56.60
20349;DHT22;10332;50.208;18.988;2022-11-04T15:18:11;15.30;57.50
20349;DHT22;10332;50.208;18.988;2022-11-04T15:20:58;15.20;57.50
20349;DHT22;10332;50.208;18.988;2022-11-04T15:23:39;15.20;57.40
20349;DHT22;10332;50.208;18.988;2022-11-04T15:26:26;15.20;57.70
20349;DHT22;10332;50.208;18.988;2022-11-04T15:28:59;15.20;58.10
20349;DHT22;10332;50.208;18.988;2022-11-04T15:31:32;15.20;58.10
20349;DHT22;10332;50.208;18.988;2022-11-04T15:34:02;15.10;58.30
20349;DHT22;10332;50.208;18.988;2022-11-04T15:36:41;15.20;59.50
20349;DHT22;10332;50.208;18.988;2022-11-04T15:39:22;15.10;59.10
20349;DHT22;10332;50.208;18.988;2022-11-04T15:42:02;15.00;59.20
20349;DHT22;10332;50.208;18.988;2022-11-04T15:44:53;15.00;59.80
20349;DHT22;10332;50.208;18.988;2022-11-04T15:47:24;15.00;60.90
20349;DHT22;10332;50.208;18.988;2022-11-04T15:50:02;14.90;60.80
20349;DHT22;10332;50.208;18.988;2022-11-04T15:52:54;14.90;61.80
20349;DHT22;10332;50.208;18.988;2022-11-04T15:55:25;14.90;62.10
20349;DHT22;10332;50.208;18.988;2022-11-04T15:57:54;14.90;62.50
20349;DHT22;10332;50.208;18.988;2022-11-04T16:00:24;14.80;62.50
20349;DHT22;10332;50.208;18.988;2022-11-04T16:02:58;14.80;62.60
20349;DHT22;10332;50.208;18.988;2022-11-04T16:05:29;14.80;62.80
20349;DHT22;10332;50.208;18.988;2022-11-04T16:10:49;14.80;63.90
20349;DHT22;10332;50.208;18.988;2022-11-04T16:13:33;14.80;63.90
20349;DHT22;10332;50.208;18.988;2022-11-04T16:21:08;14.80;64.70
20349;DHT22;10332;50.208;18.988;2022-11-04T16:23:46;14.70;64.70
20349;DHT22;10332;50.208;18.988;2022-11-04T16:26:24;14.70;64.40
20349;DHT22;10332;50.208;18.988;2022-11-04T16:28:57;14.70;64.40
20349;DHT22;10332;50.208;18.988;2022-11-04T16:31:31;14.70;64.70
20349;DHT22;10332;50.208;18.988;2022-11-04T16:34:01;14.60;65.80
20349;DHT22;10332;50.208;18.988;2022-11-04T16:36:29;14.60;65.70
20349;DHT22;10332;50.208;18.988;2022-11-04T16:39:03;14.60;65.40
20349;DHT22;10332;50.208;18.988;2022-11-04T16:41:36;14.50;65.30
20349;DHT22;10332;50.208;18.988;2022-11-04T16:44:17;14.50;65.20
20349;DHT22;10332;50.208;18.988;2022-11-04T16:46:46;14.50;65.30
20349;DHT22;10332;50.208;18.988;2022-11-04T16:49:16;14.40;65.00
20349;DHT22;10332;50.208;18.988;2022-11-04T16:51:45;14.40;65.20
20349;DHT22;10332;50.208;18.988;2022-11-04T16:54:15;14.30;65.20
20349;DHT22;10332;50.208;18.988;2022-11-04T16:56:43;14.30;65.10
20349;DHT22;10332;50.208;18.988;2022-11-04T16:59:11;14.30;65.00
20349;DHT22;10332;50.208;18.988;2022-11-04T17:01:39;14.20;65.30
20349;DHT22;10332;50.208;18.988;2022-11-04T17:04:07;14.30;65.30
20349;DHT22;10332;50.208;18.988;2022-11-04T17:06:34;14.20;66.10
20349;DHT22;10332;50.208;18.988;2022-11-04T17:09:05;14.20;65.80
20349;DHT22;10332;50.208;18.988;2022-11-04T17:11:44;14.10;66.00
20349;DHT22;10332;50.208;18.988;2022-11-04T17:14:11;14.10;66.80
20349;DHT22;10332;50.208;18.988;2022-11-04T17:16:38;14.10;67.30
20349;DHT22;10332;50.208;18.988;2022-11-04T17:19:09;14.10;68.30
20349;DHT22;10332;50.208;18.988;2022-11-04T17:21:42;14.10;67.60
20349;DHT22;10332;50.208;18.988;2022-11-04T17:24:11;14.10;67.70
20349;DHT22;10332;50.208;18.988;2022-11-04T17:26:39;14.10;67.60
20349;DHT22;10332;50.208;18.988;2022-11-04T17:29:07;14.10;68.50
20349;DHT22;10332;50.208;18.988;2022-11-04T17:31:41;14.10;69.10
20349;DHT22;10332;50.208;18.988;2022-11-04T17:34:09;14.10;69.70
20349;DHT22;10332;50.208;18.988;2022-11-04T17:36:36;14.10;71.90
20349;DHT22;10332;50.208;18.988;2022-11-04T17:39:04;14.00;72.90
20349;DHT22;10332;50.208;18.988;2022-11-04T17:41:31;14.00;75.00
20349;DHT22;10332;50.208;18.988;2022-11-04T17:44:18;13.90;76.10
20349;DHT22;10332;50.208;18.988;2022-11-04T17:46:45;13.90;76.90
20349;DHT22;10332;50.208;18.988;2022-11-04T17:49:17;13.90;79.00
20349;DHT22;10332;50.208;18.988;2022-11-04T17:51:51;13.80;79.10
20349;DHT22;10332;50.208;18.988;2022-11-04T17:54:21;13.70;80.20
20349;DHT22;10332;50.208;18.988;2022-11-04T17:56:50;13.70;80.70
20349;DHT22;10332;50.208;18.988;2022-11-04T17:59:18;13.70;81.90
20349;DHT22;10332;50.208;18.988;2022-11-04T18:01:45;13.70;82.60
20349;DHT22;10332;50.208;18.988;2022-11-04T18:04:23;13.60;83.20
20349;DHT22;10332;50.208;18.988;2022-11-04T18:06:50;13.60;83.50
20349;DHT22;10332;50.208;18.988;2022-11-04T18:09:18;13.60;84.00
20349;DHT22;10332;50.208;18.988;2022-11-04T18:11:46;13.60;84.70
20349;DHT22;10332;50.208;18.988;2022-11-04T18:14:32;13.60;86.10
20349;DHT22;10332;50.208;18.988;2022-11-04T18:16:59;13.70;87.50
20349;DHT22;10332;50.208;18.988;2022-11-04T18:19:27;13.70;86.90
20349;DHT22;10332;50.208;18.988;2022-11-04T18:21:54;13.70;86.70
20349;DHT22;10332;50.208;18.988;2022-11-04T18:24:22;13.70;87.70